KCDN/CDN METAR and TAF weather

Enter ICAO airport designator
Station Type Date Time Source
KCDN METAR 2021/05/14 12:55 UTC NOAA

KCDN 141255Z AUTO 00000KT 10SM CLR 16/08 A3030 RMK AO2


Station Type Date Time Source
KCDN Decoded METAR 2021/05/14 12:55 UTC NOAA

Station name not available
May 14, 2021 - 08:55 AM EDT / 2021.05.14 1255 UTC
Wind: Calm:0
Visibility: 10 mile(s):0
Sky conditions: clear
Temperature: 60 F (16 C)
Dew Point: 46 F (8 C)
Relative Humidity: 58%
Pressure (altimeter): 30.3 in. Hg (1026 hPa)
ob: KCDN 141255Z AUTO 00000KT 10SM CLR 16/08 A3030 RMK AO2
cycle: 13

Station Type Date Time Source
KCDN TAF UTC NOAA

Error!

Example: see airport list